Time;durP1;ratioP1;P1;durP2;ratioP2;P2;SDS_P1;SDS_P2;PMS_P1;PMS_P2;Temp;Humidity;BMP_temperature;BMP_pressure;BME280_temperature;BME280_humidity;BME280_pressure;Samples;Min_cycle;Max_cycle;Signal;HPM_P1;HPM_P2
2022/08/05 00:00:56;;;;;;;;;;;22.00;99.90;;;;;;4593123;19;20260;-37
2022/08/05 00:02:27;;;;;;;;;;;22.00;99.90;;;;;;4593668;19;19914;-34
2022/08/05 00:03:58;;;;;;;;;;;22.00;99.90;;;;;;4592890;19;20241;-33
2022/08/05 00:05:29;;;;;;;;;;;22.00;99.90;;;;;;4593086;19;19919;-34
2022/08/05 00:07:00;;;;;;;;;;;22.00;99.90;;;;;;4593388;19;19932;-35
2022/08/05 00:08:31;;;;;;;;;;;22.00;99.90;;;;;;4593659;19;20253;-34
2022/08/05 00:10:02;;;;;;;;;;;21.90;99.90;;;;;;4591921;19;19911;-35
2022/08/05 00:11:33;;;;;;;;;;;21.90;99.90;;;;;;4592872;19;19923;-39
2022/08/05 00:13:04;;;;;;;;;;;21.90;99.90;;;;;;4593564;19;19919;-35
2022/08/05 00:14:35;;;;;;;;;;;21.90;99.90;;;;;;4592833;19;19922;-34
2022/08/05 00:16:07;;;;;;;;;;;21.90;99.90;;;;;;4593003;19;19932;-43
2022/08/05 00:17:38;;;;;;;;;;;21.90;99.90;;;;;;4593356;19;19922;-38
2022/08/05 00:19:09;;;;;;;;;;;21.80;99.90;;;;;;4593193;19;20401;-34
2022/08/05 00:20:40;;;;;;;;;;;21.80;99.90;;;;;;4592657;19;19919;-34
2022/08/05 00:22:11;;;;;;;;;;;21.90;99.90;;;;;;4592725;19;19919;-35
2022/08/05 00:23:43;;;;;;;;;;;21.80;99.90;;;;;;4592927;19;19979;-38
2022/08/05 00:25:14;;;;;;;;;;;21.80;99.90;;;;;;4590495;19;20332;-36
2022/08/05 00:26:45;;;;;;;;;;;21.80;99.90;;;;;;4592397;19;19926;-39
2022/08/05 00:28:15;;;;;;;;;;;21.80;99.90;;;;;;4592423;19;19924;-39
2022/08/05 00:29:46;;;;;;;;;;;21.80;99.90;;;;;;4592048;19;19919;-34
2022/08/05 00:31:17;;;;;;;;;;;21.80;99.90;;;;;;4591893;19;19922;-38
2022/08/05 00:32:49;;;;;;;;;;;21.80;99.90;;;;;;4592768;19;19956;-38
2022/08/05 00:34:19;;;;;;;;;;;21.80;99.90;;;;;;4593133;19;19930;-44
2022/08/05 00:35:50;;;;;;;;;;;21.80;99.90;;;;;;4592758;19;19935;-33
2022/08/05 00:37:21;;;;;;;;;;;21.70;99.90;;;;;;4592335;19;20252;-35
2022/08/05 00:38:52;;;;;;;;;;;21.80;99.90;;;;;;4592353;19;19919;-34
2022/08/05 00:40:24;;;;;;;;;;;21.70;99.90;;;;;;4592866;19;20257;-37
2022/08/05 00:41:55;;;;;;;;;;;21.80;99.90;;;;;;4593142;19;19922;-42
2022/08/05 00:43:26;;;;;;;;;;;21.70;99.90;;;;;;4591736;19;19918;-40
2022/08/05 00:44:57;;;;;;;;;;;21.70;99.90;;;;;;4590242;19;20255;-36
2022/08/05 00:46:28;;;;;;;;;;;21.70;99.90;;;;;;4591660;19;19918;-44
2022/08/05 00:47:58;;;;;;;;;;;21.70;99.90;;;;;;4591988;19;19921;-38
2022/08/05 00:49:30;;;;;;;;;;;21.70;99.90;;;;;;4592339;19;19922;-35
2022/08/05 00:51:01;;;;;;;;;;;21.70;99.90;;;;;;4592423;19;20355;-39
2022/08/05 00:52:32;;;;;;;;;;;21.70;99.90;;;;;;4591497;19;19993;-35
2022/08/05 00:54:04;;;;;;;;;;;21.70;99.90;;;;;;4592023;19;19989;-34
2022/08/05 00:55:35;;;;;;;;;;;21.70;99.90;;;;;;4592251;19;19949;-38
2022/08/05 00:57:06;;;;;;;;;;;21.70;99.90;;;;;;4592579;19;19919;-34
2022/08/05 00:58:37;;;;;;;;;;;21.70;99.90;;;;;;4592579;19;19929;-34
2022/08/05 01:00:08;;;;;;;;;;;21.70;99.90;;;;;;4591927;19;19935;-34
2022/08/05 01:01:40;;;;;;;;;;;21.60;99.90;;;;;;4592269;19;19922;-37
2022/08/05 01:03:11;;;;;;;;;;;21.70;99.90;;;;;;4592726;19;19922;-34
2022/08/05 01:04:41;;;;;;;;;;;21.70;99.90;;;;;;4590657;19;19910;-39
2022/08/05 01:06:12;;;;;;;;;;;21.60;99.90;;;;;;4591489;19;19915;-38
2022/08/05 01:07:43;;;;;;;;;;;21.60;99.90;;;;;;4592058;19;19986;-36
2022/08/05 01:09:14;;;;;;;;;;;21.60;99.90;;;;;;4592049;19;20343;-36
2022/08/05 01:10:55;;;;;;;;;;;21.60;99.90;;;;;;4591556;19;19975;-41
2022/08/05 01:12:26;;;;;;;;;;;21.60;99.90;;;;;;4590786;19;19918;-40
2022/08/05 01:14:16;;;;;;;;;;;21.60;99.90;;;;;;4590397;19;19978;-34
2022/08/05 01:15:49;;;;;;;;;;;21.60;99.90;;;;;;4592253;19;19922;-42
2022/08/05 01:17:29;;;;;;;;;;;21.60;99.90;;;;;;4590804;19;19993;-43
2022/08/05 01:19:05;;;;;;;;;;;21.60;99.90;;;;;;4591109;19;19919;-33
2022/08/05 01:20:40;;;;;;;;;;;21.60;99.90;;;;;;4591460;19;20325;-43
2022/08/05 01:22:40;;;;;;;;;;;21.60;99.90;;;;;;4591306;19;19918;-33
2022/08/05 01:24:30;;;;;;;;;;;21.60;99.90;;;;;;4589230;19;19922;-35
2022/08/05 01:26:01;;;;;;;;;;;21.50;99.90;;;;;;4589591;19;19919;-39
2022/08/05 01:27:37;;;;;;;;;;;21.60;99.90;;;;;;4589324;19;19970;-40
2022/08/05 01:29:28;;;;;;;;;;;21.60;99.90;;;;;;4589123;19;19939;-36
2022/08/05 01:31:00;;;;;;;;;;;21.60;99.90;;;;;;4589389;19;19919;-35
2022/08/05 01:32:32;;;;;;;;;;;21.50;99.90;;;;;;4589394;19;20020;-35
2022/08/05 01:34:06;;;;;;;;;;;21.50;99.90;;;;;;4589282;19;19923;-39
2022/08/05 01:35:38;;;;;;;;;;;21.50;99.90;;;;;;4588975;19;19918;-42
2022/08/05 01:37:21;;;;;;;;;;;21.50;99.90;;;;;;4589200;19;19957;-38
2022/08/05 01:38:52;;;;;;;;;;;21.50;99.90;;;;;;4589599;19;19915;-34
2022/08/05 01:40:25;;;;;;;;;;;21.50;99.90;;;;;;4589139;19;19916;-43
2022/08/05 01:41:56;;;;;;;;;;;21.50;99.90;;;;;;4588837;19;20250;-40
2022/08/05 01:43:27;;;;;;;;;;;21.50;99.90;;;;;;4588485;19;19919;-43
2022/08/05 01:44:59;;;;;;;;;;;21.50;99.90;;;;;;4588343;19;19915;-34
2022/08/05 01:46:30;;;;;;;;;;;21.50;99.90;;;;;;4589061;19;20263;-40
2022/08/05 01:48:02;;;;;;;;;;;21.50;99.90;;;;;;4588819;19;19926;-35
2022/08/05 01:49:33;;;;;;;;;;;21.50;99.90;;;;;;4588889;19;20336;-37
2022/08/05 01:51:04;;;;;;;;;;;21.40;99.90;;;;;;4589266;19;19919;-39
2022/08/05 01:52:35;;;;;;;;;;;21.40;99.90;;;;;;4588102;19;19918;-34
2022/08/05 01:54:06;;;;;;;;;;;21.40;99.90;;;;;;4588646;19;19920;-43
2022/08/05 01:55:38;;;;;;;;;;;21.40;99.90;;;;;;4588932;19;19923;-38
2022/08/05 01:57:09;;;;;;;;;;;21.40;99.90;;;;;;4589019;19;19935;-44
2022/08/05 01:58:40;;;;;;;;;;;21.40;99.90;;;;;;4588581;19;19919;-40
2022/08/05 02:00:11;;;;;;;;;;;21.40;99.90;;;;;;4588702;19;19932;-41
2022/08/05 02:01:42;;;;;;;;;;;21.40;99.90;;;;;;4588729;19;19915;-34
2022/08/05 02:03:20;;;;;;;;;;;21.40;99.90;;;;;;4589172;19;19910;-44
2022/08/05 02:04:51;;;;;;;;;;;21.40;99.90;;;;;;4587876;19;19918;-43
2022/08/05 02:06:22;;;;;;;;;;;21.40;99.90;;;;;;4588878;19;19923;-34
2022/08/05 02:07:53;;;;;;;;;;;21.40;99.90;;;;;;4589047;19;19946;-38
2022/08/05 02:09:25;;;;;;;;;;;21.40;99.90;;;;;;4591395;19;19911;-36
2022/08/05 02:10:58;;;;;;;;;;;21.30;99.90;;;;;;4591059;19;19915;-41
2022/08/05 02:12:35;;;;;;;;;;;21.40;99.90;;;;;;4590753;19;19974;-36
2022/08/05 02:14:10;;;;;;;;;;;21.30;99.90;;;;;;4591464;19;19922;-34
2022/08/05 02:16:04;;;;;;;;;;;21.40;99.90;;;;;;4591150;19;19962;-36
2022/08/05 02:17:37;;;;;;;;;;;21.30;99.90;;;;;;4589792;19;19915;-36
2022/08/05 02:19:13;;;;;;;;;;;21.30;99.90;;;;;;4589654;19;19935;-40
2022/08/05 02:20:47;;;;;;;;;;;21.40;99.90;;;;;;4588358;19;20320;-35
2022/08/05 02:22:20;;;;;;;;;;;21.30;99.90;;;;;;4590295;19;19911;-41
2022/08/05 02:23:51;;;;;;;;;;;21.30;99.90;;;;;;4589982;19;19919;-34
2022/08/05 02:25:27;;;;;;;;;;;21.30;99.90;;;;;;4588146;19;19983;-35
2022/08/05 02:26:59;;;;;;;;;;;21.30;99.90;;;;;;4593024;19;19949;-34
2022/08/05 02:28:30;;;;;;;;;;;21.30;99.90;;;;;;4594370;19;19918;-38
2022/08/05 02:30:01;;;;;;;;;;;21.30;99.90;;;;;;4594123;19;19911;-34
2022/08/05 02:31:32;;;;;;;;;;;21.30;99.90;;;;;;4594841;19;19936;-35
2022/08/05 02:33:03;;;;;;;;;;;21.30;99.90;;;;;;4595603;19;19918;-35
2022/08/05 02:34:34;;;;;;;;;;;21.30;99.90;;;;;;4594061;19;19942;-34
2022/08/05 02:36:08;;;;;;;;;;;21.30;99.90;;;;;;4593722;19;19926;-36
2022/08/05 02:37:40;;;;;;;;;;;21.30;99.90;;;;;;4593787;19;19919;-33
2022/08/05 02:39:11;;;;;;;;;;;21.30;99.90;;;;;;4593830;19;19945;-35
2022/08/05 02:40:42;;;;;;;;;;;21.30;99.90;;;;;;4594511;19;20286;-37
2022/08/05 02:42:13;;;;;;;;;;;21.30;99.90;;;;;;4593808;19;19915;-42
2022/08/05 02:43:45;;;;;;;;;;;21.30;99.90;;;;;;4593486;19;20304;-37
2022/08/05 02:45:15;;;;;;;;;;;21.30;99.90;;;;;;4593115;19;19974;-34
2022/08/05 02:46:46;;;;;;;;;;;21.20;99.90;;;;;;4595434;19;19930;-41
2022/08/05 02:48:18;;;;;;;;;;;21.30;99.90;;;;;;4594845;19;19937;-38
2022/08/05 02:49:49;;;;;;;;;;;21.30;99.90;;;;;;4595083;19;19994;-38
2022/08/05 02:51:20;;;;;;;;;;;21.20;99.90;;;;;;4593834;19;20349;-35
2022/08/05 02:52:51;;;;;;;;;;;21.20;99.90;;;;;;4593075;19;19915;-40
2022/08/05 02:54:22;;;;;;;;;;;21.20;99.90;;;;;;4593785;19;19971;-38
2022/08/05 02:55:53;;;;;;;;;;;21.20;99.90;;;;;;4593561;19;20340;-35
2022/08/05 02:57:24;;;;;;;;;;;21.20;99.90;;;;;;4593501;19;19911;-41
2022/08/05 02:58:55;;;;;;;;;;;21.20;99.90;;;;;;4593945;19;19923;-34
2022/08/05 03:00:26;;;;;;;;;;;21.20;99.90;;;;;;4593640;19;20313;-35
2022/08/05 03:01:59;;;;;;;;;;;21.20;99.90;;;;;;4594212;19;19963;-37
2022/08/05 03:03:30;;;;;;;;;;;21.20;99.90;;;;;;4593839;19;19915;-45
2022/08/05 03:05:01;;;;;;;;;;;21.20;99.90;;;;;;4592725;19;19990;-37
2022/08/05 03:06:32;;;;;;;;;;;21.20;99.90;;;;;;4593213;19;20282;-35
2022/08/05 03:08:03;;;;;;;;;;;21.20;99.90;;;;;;4594049;19;19975;-40
2022/08/05 03:09:34;;;;;;;;;;;21.20;99.90;;;;;;4592949;19;19982;-39
2022/08/05 03:11:15;;;;;;;;;;;21.20;99.90;;;;;;4593818;19;19918;-37
2022/08/05 03:12:46;;;;;;;;;;;21.20;99.90;;;;;;4593153;19;20383;-38
2022/08/05 03:14:17;;;;;;;;;;;21.20;99.90;;;;;;4593898;19;20244;-35
2022/08/05 03:15:48;;;;;;;;;;;21.10;99.90;;;;;;4594160;19;19915;-35
2022/08/05 03:17:19;;;;;;;;;;;21.20;99.90;;;;;;4594093;19;19915;-34
2022/08/05 03:18:50;;;;;;;;;;;21.20;99.90;;;;;;4593873;19;19970;-37
2022/08/05 03:20:21;;;;;;;;;;;21.10;99.90;;;;;;4594446;19;19926;-42
2022/08/05 03:21:52;;;;;;;;;;;21.20;99.90;;;;;;4593934;19;19918;-44
2022/08/05 03:23:23;;;;;;;;;;;21.20;99.90;;;;;;4594504;19;19915;-38
2022/08/05 03:24:54;;;;;;;;;;;21.20;99.90;;;;;;4593204;19;19936;-41
2022/08/05 03:26:25;;;;;;;;;;;21.10;99.90;;;;;;4592931;19;19918;-38
2022/08/05 03:27:56;;;;;;;;;;;21.20;99.90;;;;;;4592827;19;19915;-41
2022/08/05 03:29:27;;;;;;;;;;;21.20;99.90;;;;;;4593261;19;19921;-38
2022/08/05 03:30:58;;;;;;;;;;;21.10;99.90;;;;;;4593612;19;19923;-37
2022/08/05 03:32:29;;;;;;;;;;;21.20;99.90;;;;;;4592640;19;20349;-43
2022/08/05 03:34:00;;;;;;;;;;;21.20;99.90;;;;;;4593313;19;19937;-42
2022/08/05 03:35:34;;;;;;;;;;;21.20;99.90;;;;;;4593777;19;19919;-39
2022/08/05 03:37:05;;;;;;;;;;;21.10;99.90;;;;;;4593566;19;19915;-35
2022/08/05 03:38:40;;;;;;;;;;;21.10;99.90;;;;;;4593520;19;19935;-40
2022/08/05 03:40:11;;;;;;;;;;;21.20;99.90;;;;;;4593646;19;20329;-35
2022/08/05 03:41:45;;;;;;;;;;;21.10;99.90;;;;;;4594314;19;19915;-36
2022/08/05 03:43:19;;;;;;;;;;;21.10;99.90;;;;;;4593137;19;20325;-37
2022/08/05 03:44:50;;;;;;;;;;;21.20;99.90;;;;;;4592818;19;19914;-39
2022/08/05 03:46:21;;;;;;;;;;;21.10;99.90;;;;;;4593588;19;19937;-35
2022/08/05 03:47:52;;;;;;;;;;;21.10;99.90;;;;;;4593969;19;19919;-37
2022/08/05 03:49:23;;;;;;;;;;;21.10;99.90;;;;;;4593626;19;19919;-35
2022/08/05 03:50:56;;;;;;;;;;;21.10;99.90;;;;;;4593366;19;19978;-40
2022/08/05 03:52:28;;;;;;;;;;;21.10;99.90;;;;;;4591825;19;19919;-42
2022/08/05 03:53:59;;;;;;;;;;;21.10;99.90;;;;;;4593414;19;19911;-38
2022/08/05 03:55:31;;;;;;;;;;;21.10;99.90;;;;;;4593557;19;19934;-38
2022/08/05 03:57:02;;;;;;;;;;;21.10;99.90;;;;;;4592128;19;20329;-38
2022/08/05 03:58:34;;;;;;;;;;;21.10;99.90;;;;;;4592554;19;19923;-34
2022/08/05 04:00:09;;;;;;;;;;;21.10;99.90;;;;;;4592690;19;19986;-35
2022/08/05 04:01:41;;;;;;;;;;;21.10;99.90;;;;;;4592759;19;19974;-40
2022/08/05 04:03:12;;;;;;;;;;;21.10;99.90;;;;;;4593379;19;19970;-37
2022/08/05 04:04:43;;;;;;;;;;;21.10;99.90;;;;;;4592657;19;19922;-39
2022/08/05 04:06:14;;;;;;;;;;;21.10;99.90;;;;;;4592497;19;20287;-40
2022/08/05 04:07:45;;;;;;;;;;;21.10;99.90;;;;;;4592674;19;19919;-34
2022/08/05 04:09:16;;;;;;;;;;;21.10;99.90;;;;;;4592263;19;19918;-37
2022/08/05 04:10:48;;;;;;;;;;;21.10;99.90;;;;;;4592302;19;19911;-38
2022/08/05 04:12:19;;;;;;;;;;;21.10;99.90;;;;;;4593056;19;19922;-37
2022/08/05 04:13:50;;;;;;;;;;;21.10;99.90;;;;;;4593025;19;19978;-41
2022/08/05 04:15:22;;;;;;;;;;;21.10;99.90;;;;;;4593108;19;19923;-40
2022/08/05 04:16:53;;;;;;;;;;;21.10;99.90;;;;;;4593552;19;19915;-41
2022/08/05 04:18:24;;;;;;;;;;;21.10;99.90;;;;;;4591805;19;19933;-40
2022/08/05 04:19:55;;;;;;;;;;;21.10;99.90;;;;;;4591863;19;19951;-35
2022/08/05 04:21:26;;;;;;;;;;;21.20;99.90;;;;;;4592579;19;19930;-37
2022/08/05 04:22:57;;;;;;;;;;;21.20;99.90;;;;;;4593094;19;19915;-38
2022/08/05 04:24:28;;;;;;;;;;;21.20;99.90;;;;;;4592183;19;20248;-35
2022/08/05 04:25:59;;;;;;;;;;;21.20;99.90;;;;;;4592810;19;19915;-40
2022/08/05 04:27:30;;;;;;;;;;;21.20;99.90;;;;;;4592607;19;19990;-42
2022/08/05 04:29:01;;;;;;;;;;;21.20;99.90;;;;;;4592911;19;19919;-34
2022/08/05 04:30:32;;;;;;;;;;;21.20;99.90;;;;;;4592486;19;20297;-41
2022/08/05 04:32:03;;;;;;;;;;;21.20;99.90;;;;;;4592680;19;20061;-38
2022/08/05 04:33:34;;;;;;;;;;;21.20;99.90;;;;;;4593197;19;19948;-44
2022/08/05 04:35:05;;;;;;;;;;;21.20;99.90;;;;;;4593193;19;19911;-44
2022/08/05 04:36:36;;;;;;;;;;;21.20;99.90;;;;;;4592492;19;20329;-36
2022/08/05 04:38:08;;;;;;;;;;;21.20;99.90;;;;;;4592635;19;19990;-36
2022/08/05 04:39:39;;;;;;;;;;;21.20;99.90;;;;;;4591825;19;19996;-35
2022/08/05 04:41:10;;;;;;;;;;;21.20;99.90;;;;;;4591981;19;19922;-44
2022/08/05 04:42:41;;;;;;;;;;;21.20;99.90;;;;;;4592363;19;19918;-35
2022/08/05 04:44:12;;;;;;;;;;;21.30;99.90;;;;;;4591643;19;19919;-35
2022/08/05 04:45:43;;;;;;;;;;;21.20;99.90;;;;;;4592477;19;19914;-33
2022/08/05 04:47:14;;;;;;;;;;;21.20;99.90;;;;;;4592145;19;20242;-40
2022/08/05 04:48:44;;;;;;;;;;;21.20;99.90;;;;;;4591281;19;19911;-36
2022/08/05 04:50:16;;;;;;;;;;;21.30;99.90;;;;;;4591558;19;19925;-34
2022/08/05 04:51:47;;;;;;;;;;;21.30;99.90;;;;;;4592798;19;19919;-34
2022/08/05 04:53:18;;;;;;;;;;;21.30;99.90;;;;;;4591137;19;19937;-34
2022/08/05 04:54:49;;;;;;;;;;;21.30;99.90;;;;;;4591025;19;19928;-40
2022/08/05 04:56:21;;;;;;;;;;;21.30;99.90;;;;;;4591930;19;19943;-37
2022/08/05 04:57:53;;;;;;;;;;;21.30;99.90;;;;;;4591849;19;19925;-42
2022/08/05 04:59:23;;;;;;;;;;;21.30;99.90;;;;;;4592271;19;19914;-38
2022/08/05 05:00:54;;;;;;;;;;;21.30;99.90;;;;;;4592483;19;19922;-35
2022/08/05 05:02:25;;;;;;;;;;;21.30;99.90;;;;;;4592590;19;19978;-33
2022/08/05 05:03:57;;;;;;;;;;;21.40;99.90;;;;;;4591947;19;19926;-33
2022/08/05 05:05:27;;;;;;;;;;;21.30;99.90;;;;;;4591002;19;19910;-37
2022/08/05 05:06:58;;;;;;;;;;;21.40;99.90;;;;;;4593458;19;19921;-43
2022/08/05 05:08:29;;;;;;;;;;;21.40;99.90;;;;;;4591489;19;19919;-37
2022/08/05 05:10:04;;;;;;;;;;;21.40;99.90;;;;;;4591788;19;19940;-36
2022/08/05 05:11:35;;;;;;;;;;;21.40;99.90;;;;;;4593098;19;19911;-34
2022/08/05 05:13:05;;;;;;;;;;;21.30;99.90;;;;;;4594124;19;19922;-35
2022/08/05 05:14:36;;;;;;;;;;;20.90;99.90;;;;;;4591441;19;19927;-36
2022/08/05 05:16:08;;;;;;;;;;;20.60;99.90;;;;;;4592150;19;19923;-34
2022/08/05 05:17:39;;;;;;;;;;;20.50;99.90;;;;;;4591921;19;19936;-36
2022/08/05 05:19:10;;;;;;;;;;;20.30;99.90;;;;;;4591008;19;19967;-39
2022/08/05 05:20:44;;;;;;;;;;;20.30;99.90;;;;;;4590748;19;19915;-34
2022/08/05 05:22:15;;;;;;;;;;;20.20;99.90;;;;;;4591270;19;20384;-35
2022/08/05 05:23:46;;;;;;;;;;;20.20;99.90;;;;;;4590682;19;19915;-40
2022/08/05 05:25:17;;;;;;;;;;;20.20;99.90;;;;;;4589711;19;19931;-38
2022/08/05 05:26:47;;;;;;;;;;;20.20;99.90;;;;;;4589754;19;19919;-34
2022/08/05 05:28:19;;;;;;;;;;;20.10;99.90;;;;;;4589544;19;20008;-36
2022/08/05 05:29:49;;;;;;;;;;;20.10;99.90;;;;;;4588636;19;19914;-39
2022/08/05 05:31:20;;;;;;;;;;;20.10;99.90;;;;;;4592049;19;19971;-39
2022/08/05 05:32:51;;;;;;;;;;;20.10;99.90;;;;;;4591055;19;19915;-36
2022/08/05 05:34:23;;;;;;;;;;;20.10;99.90;;;;;;4591442;19;19921;-39
2022/08/05 05:35:53;;;;;;;;;;;20.10;99.90;;;;;;4591339;19;20333;-34
2022/08/05 05:37:24;;;;;;;;;;;20.10;99.90;;;;;;4586793;19;19927;-39
2022/08/05 05:38:55;;;;;;;;;;;20.10;99.90;;;;;;4591465;19;19919;-39
2022/08/05 05:40:27;;;;;;;;;;;20.10;99.90;;;;;;4589978;19;20319;-37
2022/08/05 05:41:58;;;;;;;;;;;20.10;99.90;;;;;;4590552;19;19979;-34
2022/08/05 05:43:29;;;;;;;;;;;20.10;99.90;;;;;;4589687;19;20339;-30
2022/08/05 05:45:00;;;;;;;;;;;20.20;99.90;;;;;;4590079;19;19933;-41
2022/08/05 05:46:31;;;;;;;;;;;20.20;99.90;;;;;;4591345;19;19978;-37
2022/08/05 05:48:04;;;;;;;;;;;20.20;99.90;;;;;;4591845;19;20420;-39
2022/08/05 05:49:35;;;;;;;;;;;20.20;99.90;;;;;;4591283;19;20359;-35
2022/08/05 05:51:07;;;;;;;;;;;20.10;99.90;;;;;;4591446;19;19914;-37
2022/08/05 05:52:38;;;;;;;;;;;20.20;99.90;;;;;;4591106;19;19919;-41
2022/08/05 05:54:09;;;;;;;;;;;20.20;99.90;;;;;;4590637;19;20344;-40
2022/08/05 05:55:40;;;;;;;;;;;20.20;99.90;;;;;;4591208;19;19941;-36
2022/08/05 05:57:14;;;;;;;;;;;20.20;99.90;;;;;;4591137;19;19954;-37
2022/08/05 05:58:46;;;;;;;;;;;20.20;99.90;;;;;;4590020;19;19933;-41
2022/08/05 06:00:18;;;;;;;;;;;20.20;99.90;;;;;;4591279;19;19914;-37
2022/08/05 06:01:49;;;;;;;;;;;20.10;99.90;;;;;;4594496;19;19961;-33
2022/08/05 06:03:20;;;;;;;;;;;20.10;99.90;;;;;;4595488;19;20245;-34
2022/08/05 06:04:51;;;;;;;;;;;20.10;99.90;;;;;;4595273;19;19931;-43
2022/08/05 06:06:22;;;;;;;;;;;20.10;99.90;;;;;;4595773;19;19911;-35
2022/08/05 06:07:54;;;;;;;;;;;20.10;99.90;;;;;;4595506;19;19922;-36
2022/08/05 06:09:25;;;;;;;;;;;20.10;99.90;;;;;;4596138;19;19919;-37
2022/08/05 06:10:56;;;;;;;;;;;20.10;99.90;;;;;;4595499;19;19956;-34
2022/08/05 06:12:27;;;;;;;;;;;20.40;99.90;;;;;;4595226;19;20270;-42
2022/08/05 06:13:58;;;;;;;;;;;20.70;99.90;;;;;;4595580;19;19919;-33
2022/08/05 06:15:30;;;;;;;;;;;21.00;99.90;;;;;;4595774;19;19934;-33
2022/08/05 06:17:01;;;;;;;;;;;21.30;99.90;;;;;;4595511;19;19915;-34
2022/08/05 06:18:32;;;;;;;;;;;21.50;99.90;;;;;;4594284;19;19919;-35
2022/08/05 06:20:03;;;;;;;;;;;21.80;99.90;;;;;;4594285;19;20297;-34
2022/08/05 06:21:35;;;;;;;;;;;21.90;99.90;;;;;;4594783;19;19923;-33
2022/08/05 06:23:06;;;;;;;;;;;22.10;99.90;;;;;;4594433;19;19927;-30
2022/08/05 06:24:40;;;;;;;;;;;22.20;99.90;;;;;;4594392;19;20603;-34
2022/08/05 06:26:11;;;;;;;;;;;22.40;99.90;;;;;;4595074;19;20295;-34
2022/08/05 06:27:43;;;;;;;;;;;22.50;99.90;;;;;;4595652;19;19918;-34
2022/08/05 06:29:15;;;;;;;;;;;22.50;99.90;;;;;;4593413;19;20318;-34
2022/08/05 06:30:45;;;;;;;;;;;22.60;99.90;;;;;;4594457;19;19918;-39
2022/08/05 06:32:16;;;;;;;;;;;22.70;99.90;;;;;;4594801;19;19922;-36
2022/08/05 06:33:47;;;;;;;;;;;22.80;99.90;;;;;;4592678;19;19926;-35
2022/08/05 06:35:18;;;;;;;;;;;22.90;99.90;;;;;;4594834;19;20332;-40
2022/08/05 06:36:49;;;;;;;;;;;22.70;99.90;;;;;;4591971;19;19945;-35
2022/08/05 06:38:20;;;;;;;;;;;22.70;99.90;;;;;;4592965;19;19947;-35
2022/08/05 06:39:51;;;;;;;;;;;22.90;99.90;;;;;;4592938;19;20249;-35
2022/08/05 06:41:22;;;;;;;;;;;23.00;99.90;;;;;;4592452;19;19978;-34
2022/08/05 06:42:53;;;;;;;;;;;23.10;99.90;;;;;;4590450;19;19942;-41
2022/08/05 06:44:24;;;;;;;;;;;23.10;99.90;;;;;;4590607;19;19919;-37
2022/08/05 06:45:55;;;;;;;;;;;23.00;99.90;;;;;;4594217;19;19915;-34
2022/08/05 06:47:26;;;;;;;;;;;22.80;99.90;;;;;;4594627;19;19930;-36
2022/08/05 06:48:57;;;;;;;;;;;22.70;99.90;;;;;;4595637;19;19934;-34
2022/08/05 06:50:28;;;;;;;;;;;22.60;99.90;;;;;;4594543;19;20329;-36
2022/08/05 06:51:59;;;;;;;;;;;22.70;99.90;;;;;;4594305;19;19923;-34
2022/08/05 06:53:30;;;;;;;;;;;22.70;99.90;;;;;;4592542;19;19937;-35
2022/08/05 06:55:01;;;;;;;;;;;22.70;99.90;;;;;;4594857;19;19914;-41
2022/08/05 06:56:32;;;;;;;;;;;22.70;99.90;;;;;;4593307;19;19911;-41
2022/08/05 06:58:03;;;;;;;;;;;22.70;99.90;;;;;;4594309;19;19947;-38
2022/08/05 06:59:34;;;;;;;;;;;22.60;99.90;;;;;;4595091;19;19914;-35
2022/08/05 07:01:05;;;;;;;;;;;22.30;99.90;;;;;;4592334;19;19925;-35
2022/08/05 07:02:43;;;;;;;;;;;20.70;99.90;;;;;;4593557;19;20247;-36
2022/08/05 07:04:14;;;;;;;;;;;20.40;99.90;;;;;;4594314;19;19914;-36
2022/08/05 07:05:45;;;;;;;;;;;20.60;99.90;;;;;;4594401;19;19911;-34
2022/08/05 07:07:17;;;;;;;;;;;20.60;99.90;;;;;;4594971;19;20260;-33
2022/08/05 07:08:48;;;;;;;;;;;20.70;99.90;;;;;;4594235;19;19918;-37
2022/08/05 07:10:19;;;;;;;;;;;20.80;99.90;;;;;;4594345;19;20264;-42
2022/08/05 07:11:50;;;;;;;;;;;20.80;99.90;;;;;;4592118;19;19971;-43
2022/08/05 07:17:01;;;;;;;;;;;21.20;99.90;;;;;;4594272;19;20290;-34
2022/08/05 07:18:32;;;;;;;;;;;21.30;99.90;;;;;;4594263;19;20329;-40
2022/08/05 07:20:03;;;;;;;;;;;21.20;99.90;;;;;;4594427;19;19930;-35
2022/08/05 07:21:34;;;;;;;;;;;21.30;99.90;;;;;;4594017;19;19923;-34
2022/08/05 07:23:05;;;;;;;;;;;21.40;99.90;;;;;;4594251;19;19936;-42
2022/08/05 07:24:36;;;;;;;;;;;21.40;99.90;;;;;;4593637;19;19915;-44
2022/08/05 07:26:07;;;;;;;;;;;21.40;99.90;;;;;;4594678;19;19919;-35
2022/08/05 07:27:38;;;;;;;;;;;21.60;99.90;;;;;;4593779;19;19918;-39
2022/08/05 07:29:09;;;;;;;;;;;21.50;99.90;;;;;;4593995;19;19914;-39
2022/08/05 07:30:40;;;;;;;;;;;21.50;99.90;;;;;;4594204;19;19943;-35
2022/08/05 07:32:11;;;;;;;;;;;21.50;99.90;;;;;;4594146;19;19934;-37
2022/08/05 07:33:42;;;;;;;;;;;21.60;99.90;;;;;;4593740;19;19922;-35
2022/08/05 07:35:14;;;;;;;;;;;21.60;99.90;;;;;;4592674;19;19918;-40
2022/08/05 07:36:45;;;;;;;;;;;21.70;99.90;;;;;;4593396;19;20321;-34
2022/08/05 07:38:16;;;;;;;;;;;21.60;99.90;;;;;;4593489;19;20260;-34
2022/08/05 07:39:47;;;;;;;;;;;21.60;99.90;;;;;;4592832;19;19935;-36
2022/08/05 07:41:19;;;;;;;;;;;21.70;99.90;;;;;;4593522;19;19919;-37
2022/08/05 07:42:50;;;;;;;;;;;21.80;99.90;;;;;;4594266;19;19925;-34
2022/08/05 07:44:20;;;;;;;;;;;21.90;99.90;;;;;;4592093;19;19919;-40
2022/08/05 07:45:51;;;;;;;;;;;21.90;99.90;;;;;;4593417;19;19943;-34
2022/08/05 07:47:22;;;;;;;;;;;21.90;99.90;;;;;;4594025;19;19915;-36
2022/08/05 07:48:54;;;;;;;;;;;22.00;99.90;;;;;;4594164;19;19923;-35
2022/08/05 07:50:25;;;;;;;;;;;22.00;99.90;;;;;;4593405;19;19989;-36
2022/08/05 07:51:55;;;;;;;;;;;22.10;99.90;;;;;;4593606;19;20325;-34
2022/08/05 07:53:27;;;;;;;;;;;22.20;99.90;;;;;;4594045;19;19926;-41
2022/08/05 07:54:58;;;;;;;;;;;22.20;99.90;;;;;;4593234;19;19974;-39
2022/08/05 07:56:29;;;;;;;;;;;22.20;99.90;;;;;;4593338;19;19911;-39
2022/08/05 07:58:00;;;;;;;;;;;22.20;99.90;;;;;;4592254;19;19922;-34
2022/08/05 07:59:31;;;;;;;;;;;22.30;99.90;;;;;;4593141;19;20358;-35
2022/08/05 08:01:02;;;;;;;;;;;22.40;99.90;;;;;;4593190;19;19925;-36
2022/08/05 08:02:33;;;;;;;;;;;22.40;99.90;;;;;;4593679;19;19919;-44
2022/08/05 08:04:04;;;;;;;;;;;22.50;99.90;;;;;;4593764;19;19918;-35
2022/08/05 08:05:35;;;;;;;;;;;22.50;99.90;;;;;;4591760;19;19919;-34
2022/08/05 08:07:06;;;;;;;;;;;22.50;99.90;;;;;;4593413;19;19915;-34
2022/08/05 08:08:37;;;;;;;;;;;22.50;99.90;;;;;;4592156;19;19919;-37
2022/08/05 08:10:08;;;;;;;;;;;22.50;99.90;;;;;;4591846;19;19959;-34
2022/08/05 08:11:39;;;;;;;;;;;22.50;99.90;;;;;;4592565;19;19974;-34
2022/08/05 08:13:10;;;;;;;;;;;22.60;99.90;;;;;;4593267;19;20244;-37
2022/08/05 08:14:41;;;;;;;;;;;22.60;99.90;;;;;;4592180;19;19911;-39
2022/08/05 08:16:12;;;;;;;;;;;22.70;99.90;;;;;;4593320;19;19951;-41
2022/08/05 08:17:43;;;;;;;;;;;22.70;99.90;;;;;;4592709;19;19925;-34
2022/08/05 08:19:14;;;;;;;;;;;22.70;99.90;;;;;;4592894;19;20328;-34
2022/08/05 08:20:45;;;;;;;;;;;22.80;99.90;;;;;;4593327;19;19979;-37
2022/08/05 08:22:16;;;;;;;;;;;22.80;99.90;;;;;;4592273;19;19911;-41
2022/08/05 08:23:47;;;;;;;;;;;22.80;99.90;;;;;;4590583;19;19923;-40
2022/08/05 08:25:18;;;;;;;;;;;22.80;99.90;;;;;;4591500;19;19918;-37
2022/08/05 08:26:49;;;;;;;;;;;22.90;99.90;;;;;;4592098;19;19982;-34
2022/08/05 08:28:20;;;;;;;;;;;22.80;99.90;;;;;;4591377;19;19915;-44
2022/08/05 08:29:52;;;;;;;;;;;23.00;99.90;;;;;;4592469;19;19921;-42
2022/08/05 08:31:22;;;;;;;;;;;23.00;99.90;;;;;;4592894;19;19922;-34
2022/08/05 08:32:53;;;;;;;;;;;23.00;99.90;;;;;;4593273;19;19941;-41
2022/08/05 08:34:25;;;;;;;;;;;23.10;99.90;;;;;;4592632;19;19911;-38
2022/08/05 08:35:56;;;;;;;;;;;23.10;99.90;;;;;;4592511;19;19936;-36
2022/08/05 08:37:27;;;;;;;;;;;23.00;99.90;;;;;;4592660;19;19919;-34
2022/08/05 08:38:58;;;;;;;;;;;23.00;99.90;;;;;;4592716;19;20284;-37
2022/08/05 08:40:31;;;;;;;;;;;23.10;99.90;;;;;;4592612;19;20317;-36
2022/08/05 08:42:02;;;;;;;;;;;23.10;99.90;;;;;;4591214;19;19915;-35
2022/08/05 08:43:34;;;;;;;;;;;23.10;99.90;;;;;;4591533;19;19915;-35
2022/08/05 08:45:05;;;;;;;;;;;23.20;99.90;;;;;;4591558;19;19919;-34
2022/08/05 08:46:36;;;;;;;;;;;23.20;99.90;;;;;;4589844;19;19919;-35
2022/08/05 08:48:07;;;;;;;;;;;23.10;99.90;;;;;;4590345;19;20005;-40
2022/08/05 08:49:38;;;;;;;;;;;23.20;99.90;;;;;;4590134;19;19911;-34
2022/08/05 08:51:10;;;;;;;;;;;23.20;99.90;;;;;;4589917;19;19936;-37
2022/08/05 08:52:41;;;;;;;;;;;23.20;99.90;;;;;;4589328;19;19919;-38
2022/08/05 08:54:12;;;;;;;;;;;23.20;99.90;;;;;;4589935;19;19922;-37
2022/08/05 08:55:43;;;;;;;;;;;23.30;99.90;;;;;;4590213;19;20275;-34
2022/08/05 08:57:14;;;;;;;;;;;23.30;99.90;;;;;;4590009;19;20292;-35